TimeEST,TemperatureF,Dew PointF,Humidity,Sea Level PressureIn,VisibilityMPH,Wind Direction,Wind SpeedMPH,Gust SpeedMPH,PrecipitationIn,Events,Conditions,WindDirDegrees,DateUTC
12:54 AM,24.1,19.9,84,30.53,10.0,SSE,8.1,-,N/A,,Mostly Cloudy,160,2013-11-30 05:54:00
1:54 AM,23.0,19.9,88,30.51,9.0,SSE,5.8,-,N/A,,Mostly Cloudy,160,2013-11-30 06:54:00
2:54 AM,24.1,21.0,88,30.48,10.0,SSE,6.9,-,N/A,,Scattered Clouds,150,2013-11-30 07:54:00
3:54 AM,25.0,21.0,85,30.45,10.0,SSE,6.9,-,N/A,,Scattered Clouds,160,2013-11-30 08:54:00
4:54 AM,26.1,21.0,81,30.43,10.0,SSE,8.1,-,N/A,,Mostly Cloudy,160,2013-11-30 09:54:00
5:54 AM,28.0,21.0,75,30.40,10.0,South,11.5,-,N/A,,Mostly Cloudy,170,2013-11-30 10:54:00
6:54 AM,28.9,21.9,75,30.38,10.0,South,12.7,-,N/A,,Overcast,180,2013-11-30 11:54:00
7:54 AM,28.9,21.9,75,30.34,10.0,South,15.0,24.2,N/A,,Overcast,170,2013-11-30 12:54:00
8:54 AM,28.9,21.9,75,30.31,10.0,South,15.0,-,N/A,,Overcast,180,2013-11-30 13:54:00
9:54 AM,28.9,21.9,75,30.27,10.0,South,12.7,-,N/A,,Overcast,180,2013-11-30 14:54:00
10:54 AM,30.0,21.9,72,30.24,10.0,SSW,10.4,-,N/A,,Scattered Clouds,200,2013-11-30 15:54:00
11:54 AM,30.9,23.0,72,30.19,9.0,SSW,11.5,-,N/A,,Mostly Cloudy,210,2013-11-30 16:54:00
12:54 PM,33.1,24.1,70,30.15,9.0,SSW,9.2,-,N/A,,Overcast,200,2013-11-30 17:54:00
1:54 PM,34.0,25.0,70,30.12,10.0,South,9.2,-,N/A,,Overcast,190,2013-11-30 18:54:00
2:54 PM,35.1,25.0,67,30.10,10.0,Variable,5.8,-,N/A,,Overcast,0,2013-11-30 19:54:00
3:54 PM,34.0,26.1,73,30.09,10.0,South,4.6,-,N/A,,Overcast,170,2013-11-30 20:54:00
4:54 PM,34.0,27.0,75,30.08,10.0,South,3.5,-,N/A,,Overcast,170,2013-11-30 21:54:00
5:54 PM,32.0,27.0,82,30.07,10.0,SSE,4.6,-,N/A,,Overcast,160,2013-11-30 22:54:00
6:54 PM,33.1,26.1,75,30.08,10.0,Calm,Calm,-,N/A,,Overcast,0,2013-11-30 23:54:00
7:54 PM,32.0,27.0,82,30.08,10.0,Calm,Calm,-,N/A,,Overcast,0,2013-12-01 00:54:00
8:54 PM,30.9,28.0,89,30.07,10.0,South,5.8,-,N/A,,Overcast,180,2013-12-01 01:54:00
9:29 PM,33.1,28.0,82,30.03,10.0,South,4.6,-,N/A,,Overcast,180,2013-12-01 02:29:00
9:54 PM,33.1,28.0,82,30.06,10.0,South,4.6,-,N/A,,Overcast,190,2013-12-01 02:54:00
10:54 PM,34.0,28.0,79,30.06,10.0,Calm,Calm,-,N/A,,Overcast,0,2013-12-01 03:54:00
11:54 PM,34.0,27.0,75,30.06,10.0,Calm,Calm,-,N/A,,Overcast,0,2013-12-01 04:54:00